createdAt,value
2022-10-16T00:03:00.457Z,100269.56
2022-10-16T00:06:05.848Z,100275.97
2022-10-16T00:09:09.414Z,100279.13
2022-10-16T00:12:12.601Z,100276.00
2022-10-16T00:15:15.897Z,100276.56
2022-10-16T00:18:19.104Z,100270.97
2022-10-16T00:21:26.086Z,100283.41
2022-10-16T00:24:29.300Z,100282.97
2022-10-16T00:27:32.562Z,100278.31
2022-10-16T00:30:35.895Z,100278.25
2022-10-16T00:33:41.149Z,100274.19
2022-10-16T00:36:45.767Z,100273.38
2022-10-16T00:39:49.220Z,100288.22
2022-10-16T00:42:52.407Z,100277.81
2022-10-16T00:45:55.726Z,100279.88
2022-10-16T00:49:04.459Z,100296.03
2022-10-16T00:52:09.179Z,100304.06
2022-10-16T00:55:12.602Z,100299.41
2022-10-16T00:58:15.875Z,100300.31
2022-10-16T01:01:19.103Z,100307.91
2022-10-16T01:04:23.523Z,100310.44
2022-10-16T01:07:42.785Z,100319.66
2022-10-16T01:11:00.288Z,100330.50
2022-10-16T01:14:11.314Z,100329.81
2022-10-16T01:17:18.215Z,100335.56
2022-10-16T01:20:28.401Z,100333.78
2022-10-16T01:23:46.543Z,100330.22
2022-10-16T01:27:14.779Z,100331.88
2022-10-16T01:30:23.299Z,100336.19
2022-10-16T01:33:32.500Z,100336.94
2022-10-16T01:36:41.206Z,100335.44
2022-10-16T01:39:48.068Z,100335.00
2022-10-16T01:46:03.443Z,100346.88
2022-10-16T01:49:08.616Z,100347.47
2022-10-16T01:52:15.982Z,100356.59
2022-10-16T01:55:24.789Z,100354.31
2022-10-16T01:58:35.702Z,100353.72
2022-10-16T02:01:42.737Z,100354.25
2022-10-16T02:04:49.715Z,100354.63
2022-10-16T02:07:52.916Z,100356.75
2022-10-16T02:10:57.136Z,100353.00
2022-10-16T02:14:05.980Z,100351.84
2022-10-16T02:17:13.857Z,100345.00
2022-10-16T02:20:17.451Z,100353.50
2022-10-16T02:23:27.585Z,100358.50
2022-10-16T02:26:36.313Z,100362.03
2022-10-16T02:29:46.055Z,100366.13
2022-10-16T02:32:51.194Z,100355.34
2022-10-16T02:35:55.963Z,100359.31
2022-10-16T02:39:01.221Z,100364.81
2022-10-16T02:42:04.915Z,100374.25
2022-10-16T02:45:11.803Z,100379.03
2022-10-16T02:48:15.912Z,100375.06
2022-10-16T02:51:19.194Z,100373.81
2022-10-16T02:54:22.482Z,100384.69
2022-10-16T02:57:25.922Z,100383.38
2022-10-16T03:00:30.809Z,100383.25
2022-10-16T03:03:34.019Z,100388.84
2022-10-16T03:06:37.340Z,100390.72
2022-10-16T03:09:40.543Z,100395.72
2022-10-16T03:12:43.830Z,100389.91
2022-10-16T03:15:48.963Z,100394.31
2022-10-16T03:18:52.432Z,100400.72
2022-10-16T03:21:55.639Z,100401.19
2022-10-16T03:24:58.858Z,100403.97
2022-10-16T03:28:02.126Z,100402.22
2022-10-16T03:31:07.022Z,100404.31
2022-10-16T03:34:10.264Z,100405.03
2022-10-16T03:37:13.728Z,100409.31
2022-10-16T03:40:17.521Z,100406.03
2022-10-16T03:43:20.701Z,100411.69
2022-10-16T03:46:25.358Z,100416.06
2022-10-16T03:49:28.584Z,100415.03
2022-10-16T03:52:33.177Z,100419.88
2022-10-16T03:55:37.559Z,100420.13
2022-10-16T03:58:40.762Z,100429.25
2022-10-16T04:01:45.451Z,100426.72
2022-10-16T04:04:48.641Z,100430.16
2022-10-16T04:07:51.969Z,100430.72
2022-10-16T04:10:55.190Z,100435.22
2022-10-16T04:13:58.428Z,100428.22
2022-10-16T04:17:03.128Z,100425.59
2022-10-16T04:20:07.498Z,100423.59
2022-10-16T04:23:10.840Z,100427.16
2022-10-16T04:26:14.193Z,100434.63
2022-10-16T04:29:17.343Z,100424.22
2022-10-16T04:32:22.133Z,100430.16
2022-10-16T04:35:25.346Z,100434.06
2022-10-16T04:38:28.929Z,100437.13
2022-10-16T04:41:32.295Z,100430.16
2022-10-16T04:44:35.570Z,100425.81
2022-10-16T04:47:40.232Z,100435.41
2022-10-16T04:50:43.637Z,100436.13
2022-10-16T04:53:46.863Z,100434.63
2022-10-16T04:56:51.889Z,100443.44
2022-10-16T04:59:56.203Z,100451.59
2022-10-16T05:03:01.967Z,100459.06
2022-10-16T05:06:08.008Z,100453.81
2022-10-16T05:09:11.930Z,100446.81
2022-10-16T05:12:15.149Z,100457.50
2022-10-16T05:15:18.389Z,100460.84
2022-10-16T05:18:23.067Z,100460.97
2022-10-16T05:21:26.231Z,100468.09
2022-10-16T05:24:29.511Z,100478.38
2022-10-16T05:27:32.694Z,100476.31
2022-10-16T05:30:35.947Z,100478.19
2022-10-16T05:33:40.632Z,100489.31
2022-10-16T05:36:46.288Z,100485.75
2022-10-16T05:39:49.519Z,100494.84
2022-10-16T05:42:57.309Z,100501.31
2022-10-16T05:46:02.331Z,100510.53
2022-10-16T05:49:07.030Z,100513.44
2022-10-16T05:52:10.212Z,100515.91
2022-10-16T05:55:13.368Z,100515.22
2022-10-16T05:58:16.580Z,100515.75
2022-10-16T06:01:21.908Z,100521.31
2022-10-16T06:04:26.594Z,100516.94
2022-10-16T06:07:29.977Z,100521.56
2022-10-16T06:10:33.175Z,100527.59
2022-10-16T06:13:36.606Z,100523.59
2022-10-16T06:16:40.116Z,100528.97
2022-10-16T06:19:44.706Z,100538.25
2022-10-16T06:22:47.928Z,100536.75
2022-10-16T06:25:51.217Z,100546.25
2022-10-16T06:28:56.791Z,100542.81
2022-10-16T06:32:00.021Z,100545.25
2022-10-16T06:35:04.836Z,100551.44
2022-10-16T06:38:08.076Z,100554.59
2022-10-16T06:41:13.532Z,100556.09
2022-10-16T06:44:16.768Z,100560.88
2022-10-16T06:47:20.029Z,100561.19
2022-10-16T06:50:24.733Z,100559.19
2022-10-16T06:53:29.495Z,100562.50
2022-10-16T06:56:33.674Z,100570.25
2022-10-16T06:59:36.920Z,100577.22
2022-10-16T07:02:42.493Z,100577.31
2022-10-16T07:05:47.148Z,100579.78
2022-10-16T07:08:50.929Z,100574.09
2022-10-16T07:11:54.460Z,100577.81
2022-10-16T07:14:57.749Z,100582.88
2022-10-16T07:18:01.043Z,100577.16
2022-10-16T07:21:11.200Z,100581.47
2022-10-16T07:24:16.515Z,100587.53
2022-10-16T07:27:19.782Z,100580.25
2022-10-16T07:30:23.072Z,100580.31
2022-10-16T07:33:26.383Z,100580.03
2022-10-16T07:36:33.222Z,100577.41
2022-10-16T07:39:36.508Z,100571.31
2022-10-16T07:42:39.756Z,100580.34
2022-10-16T07:45:50.466Z,100577.81
2022-10-16T07:48:54.255Z,100575.31
2022-10-16T07:51:58.904Z,100582.16
2022-10-16T07:55:02.115Z,100584.06
2022-10-16T07:58:05.762Z,100586.66
2022-10-16T08:01:10.845Z,100579.41
2022-10-16T08:04:14.059Z,100586.56
2022-10-16T08:07:18.899Z,100583.50
2022-10-16T08:10:26.640Z,100589.00
2022-10-16T08:13:29.897Z,100567.19
2022-10-16T08:16:33.387Z,100583.22
2022-10-16T08:19:36.617Z,100579.88
2022-10-16T08:22:41.655Z,100573.16
2022-10-16T08:25:44.943Z,100573.13
2022-10-16T08:28:48.249Z,100572.16
2022-10-16T08:31:51.602Z,100577.94
2022-10-16T08:34:54.851Z,100579.84
2022-10-16T08:38:01.544Z,100576.13
2022-10-16T08:41:39.350Z,100565.41
2022-10-16T08:45:18.308Z,100574.88
2022-10-16T08:48:27.732Z,100578.69
2022-10-16T08:51:37.038Z,100572.09
2022-10-16T08:54:48.033Z,100567.75
2022-10-16T08:57:51.708Z,100568.31
2022-10-16T09:00:57.351Z,100571.53
2022-10-16T09:04:45.819Z,100575.94
2022-10-16T09:07:57.506Z,100565.88
2022-10-16T09:11:11.216Z,100570.47
2022-10-16T09:14:37.353Z,100568.06
2022-10-16T09:17:49.690Z,100563.06
2022-10-16T09:20:59.417Z,100569.03
2022-10-16T09:24:12.679Z,100563.34
2022-10-16T09:27:17.726Z,100566.09
2022-10-16T09:30:23.250Z,100560.97
2022-10-16T09:33:38.147Z,100551.00
2022-10-16T09:36:45.474Z,100563.03
2022-10-16T09:39:54.785Z,100554.44
2022-10-16T09:43:08.234Z,100553.66
2022-10-16T09:46:39.074Z,100554.63
2022-10-16T09:49:54.210Z,100545.66
2022-10-16T09:53:08.230Z,100541.81
2022-10-16T09:56:15.362Z,100536.00
2022-10-16T09:59:22.307Z,100534.63
2022-10-16T10:02:33.081Z,100529.44
2022-10-16T10:05:36.590Z,100527.72
2022-10-16T10:08:47.045Z,100523.34
2022-10-16T10:11:56.269Z,100526.00
2022-10-16T10:15:08.515Z,100517.28
2022-10-16T10:18:21.076Z,100511.25
2022-10-16T10:21:24.485Z,100513.88
2022-10-16T10:24:27.928Z,100513.09
2022-10-16T10:27:42.140Z,100514.03
2022-10-16T10:30:56.353Z,100502.88
2022-10-16T10:34:08.024Z,100503.41
2022-10-16T10:37:26.348Z,100498.72
2022-10-16T10:40:42.080Z,100495.06
2022-10-16T10:43:57.925Z,100495.22
2022-10-16T10:47:11.627Z,100487.44
2022-10-16T10:50:24.081Z,100496.28
2022-10-16T10:53:38.751Z,100485.81
2022-10-16T10:56:49.602Z,100482.50
2022-10-16T11:00:10.555Z,100476.78
2022-10-16T11:03:32.698Z,100479.88
2022-10-16T11:06:39.359Z,100475.38
2022-10-16T11:09:48.044Z,100475.69
2022-10-16T11:12:55.136Z,100471.88
2022-10-16T11:16:01.447Z,100476.78
2022-10-16T11:19:15.313Z,100478.84
2022-10-16T11:22:22.962Z,100471.06
2022-10-16T11:25:34.075Z,100467.78
2022-10-16T11:28:44.252Z,100459.19
2022-10-16T11:31:52.173Z,100463.69
2022-10-16T11:35:02.276Z,100454.66
2022-10-16T11:38:12.525Z,100449.50
2022-10-16T11:41:24.698Z,100445.66
2022-10-16T11:44:44.707Z,100455.06
2022-10-16T11:47:59.229Z,100448.34
2022-10-16T11:51:11.755Z,100449.75
2022-10-16T11:54:23.692Z,100448.72
2022-10-16T11:57:30.322Z,100447.28
2022-10-16T12:00:41.038Z,100450.38
2022-10-16T12:03:51.357Z,100454.88
2022-10-16T12:07:02.125Z,100447.47
2022-10-16T12:10:13.219Z,100450.09
2022-10-16T12:13:33.810Z,100456.94
2022-10-16T12:16:40.050Z,100454.97
2022-10-16T12:19:43.316Z,100447.47
2022-10-16T12:22:55.174Z,100452.63
2022-10-16T12:26:00.676Z,100455.91
2022-10-16T12:29:16.753Z,100456.50
2022-10-16T12:32:47.354Z,100457.69
2022-10-16T12:35:52.166Z,100454.66
2022-10-16T12:38:57.176Z,100450.03
2022-10-16T12:42:05.738Z,100449.09
2022-10-16T12:45:28.150Z,100454.59
2022-10-16T12:48:42.332Z,100452.09
2022-10-16T12:51:52.680Z,100455.88
2022-10-16T12:55:01.961Z,100459.56
2022-10-16T12:58:17.317Z,100458.75
2022-10-16T13:01:40.782Z,100451.59
2022-10-16T13:05:11.161Z,100451.81
2022-10-16T13:08:39.954Z,100465.75
2022-10-16T13:12:01.518Z,100461.44
2022-10-16T13:15:19.410Z,100461.22
2022-10-16T13:18:29.053Z,100456.94
2022-10-16T13:21:41.834Z,100455.06
2022-10-16T13:24:55.888Z,100463.88
2022-10-16T13:28:03.147Z,100461.66
2022-10-16T13:31:07.133Z,100461.22
2022-10-16T13:34:16.751Z,100463.47
2022-10-16T13:37:21.845Z,100474.97
2022-10-16T13:40:27.075Z,100474.03
2022-10-16T13:43:36.626Z,100463.69
2022-10-16T13:46:39.929Z,100468.13
2022-10-16T13:49:43.188Z,100465.19
2022-10-16T13:52:46.886Z,100463.16
2022-10-16T13:55:50.144Z,100466.44
2022-10-16T13:59:03.262Z,100465.72
2022-10-16T14:02:19.580Z,100462.59
2022-10-16T14:05:22.880Z,100466.03
2022-10-16T14:08:28.003Z,100468.50
2022-10-16T14:11:31.679Z,100469.78
2022-10-16T14:14:42.276Z,100469.31
2022-10-16T14:17:50.703Z,100475.44
2022-10-16T14:20:55.702Z,100470.63
2022-10-16T14:24:00.789Z,100465.47
2022-10-16T14:27:04.919Z,100471.31
2022-10-16T14:30:17.904Z,100468.19
2022-10-16T14:33:24.975Z,100471.91
2022-10-16T14:36:30.386Z,100473.81
2022-10-16T14:39:33.798Z,100475.97
2022-10-16T14:42:37.132Z,100476.84
2022-10-16T14:45:44.076Z,100477.84
2022-10-16T14:48:51.078Z,100475.44
2022-10-16T14:51:54.409Z,100470.78
2022-10-16T14:54:57.659Z,100477.28
2022-10-16T14:58:01.142Z,100474.47
2022-10-16T15:01:08.002Z,100477.19
2022-10-16T15:04:14.649Z,100477.63
2022-10-16T15:07:18.115Z,100482.00
2022-10-16T15:10:24.074Z,100484.78
2022-10-16T15:13:27.445Z,100471.06
2022-10-16T15:16:32.508Z,100479.56
2022-10-16T15:19:35.747Z,100483.91
2022-10-16T15:22:38.936Z,100483.81
2022-10-16T15:25:45.525Z,100485.94
2022-10-16T15:28:48.812Z,100486.75
2022-10-16T15:31:53.517Z,100491.44
2022-10-16T15:34:57.519Z,100494.63
2022-10-16T15:38:06.227Z,100498.81
2022-10-16T15:41:12.917Z,100498.34
2022-10-16T15:44:21.275Z,100501.56
2022-10-16T15:47:27.826Z,100503.75
2022-10-16T15:50:35.597Z,100514.09
2022-10-16T15:53:48.459Z,100509.22
2022-10-16T15:56:51.740Z,100517.53
2022-10-16T15:59:57.724Z,100523.47
2022-10-16T16:03:00.956Z,100523.59
2022-10-16T16:06:07.272Z,100528.59
2022-10-16T16:09:11.899Z,100534.66
2022-10-16T16:12:15.169Z,100540.13
2022-10-16T16:15:18.476Z,100539.09
2022-10-16T16:18:21.941Z,100541.72
2022-10-16T16:21:25.169Z,100546.66
2022-10-16T16:24:29.855Z,100554.94
2022-10-16T16:27:34.635Z,100553.13
2022-10-16T16:30:37.925Z,100551.66
2022-10-16T16:33:41.131Z,100556.00
2022-10-16T16:36:44.348Z,100564.56
2022-10-16T16:39:48.956Z,100559.13
2022-10-16T16:42:52.176Z,100571.38
2022-10-16T16:45:56.173Z,100576.78
2022-10-16T16:49:00.406Z,100578.44
2022-10-16T16:52:03.612Z,100584.16
2022-10-16T16:55:09.093Z,100582.88
2022-10-16T16:58:12.471Z,100588.50
2022-10-16T17:01:19.935Z,100603.72
2022-10-16T17:04:23.760Z,100598.91
2022-10-16T17:07:28.772Z,100602.72
2022-10-16T17:10:33.627Z,100611.31
2022-10-16T17:13:38.460Z,100614.31
2022-10-16T17:16:44.733Z,100607.84
2022-10-16T17:19:48.065Z,100606.38
2022-10-16T17:22:52.043Z,100612.84
2022-10-16T17:25:56.916Z,100625.38
2022-10-16T17:29:02.416Z,100627.41
2022-10-16T17:32:06.103Z,100632.41
2022-10-16T17:35:09.997Z,100625.34
2022-10-16T17:38:15.263Z,100621.56
2022-10-16T17:41:21.734Z,100631.13
2022-10-16T17:44:24.927Z,100637.13
2022-10-16T17:47:29.262Z,100634.16
2022-10-16T17:50:32.504Z,100651.97
2022-10-16T17:53:36.187Z,100659.56
2022-10-16T17:56:43.712Z,100661.84
2022-10-16T17:59:46.935Z,100668.81
2022-10-16T18:02:51.348Z,100670.03
2022-10-16T18:05:54.827Z,100680.19
2022-10-16T18:08:59.163Z,100678.25
2022-10-16T18:12:03.809Z,100674.66
2022-10-16T18:15:08.462Z,100677.50
2022-10-16T18:18:11.836Z,100683.09
2022-10-16T18:21:17.368Z,100688.22
2022-10-16T18:24:21.006Z,100691.91
2022-10-16T18:27:26.144Z,100698.25
2022-10-16T18:30:29.966Z,100693.44
2022-10-16T18:33:34.385Z,100706.66
2022-10-16T18:36:37.796Z,100707.44
2022-10-16T18:39:41.115Z,100706.31
2022-10-16T18:42:45.691Z,100714.50
2022-10-16T18:45:57.456Z,100720.78
2022-10-16T18:49:01.862Z,100728.63
2022-10-16T18:52:05.779Z,100729.34
2022-10-16T18:55:10.919Z,100739.63
2022-10-16T18:58:15.576Z,100737.66
2022-10-16T19:01:21.741Z,100749.91
2022-10-16T19:04:25.135Z,100748.63
2022-10-16T19:07:28.725Z,100748.13
2022-10-16T19:10:32.171Z,100743.91
2022-10-16T19:13:36.903Z,100753.91
2022-10-16T19:16:42.887Z,100761.81
2022-10-16T19:19:46.193Z,100764.00
2022-10-16T19:22:54.406Z,100765.59
2022-10-16T19:25:57.633Z,100773.13
2022-10-16T19:29:05.818Z,100769.72
2022-10-16T19:32:09.065Z,100774.63
2022-10-16T19:35:12.276Z,100778.53
2022-10-16T19:38:15.604Z,100776.59
2022-10-16T19:41:20.305Z,100783.03
2022-10-16T19:44:26.507Z,100789.56
2022-10-16T19:47:29.695Z,100792.59
2022-10-16T19:50:32.908Z,100800.38
2022-10-16T19:53:36.121Z,100805.19
2022-10-16T19:56:39.480Z,100806.13
2022-10-16T19:59:45.671Z,100810.88
2022-10-16T20:02:49.198Z,100815.94
2022-10-16T20:05:53.479Z,100814.25
2022-10-16T20:08:58.331Z,100812.31
2022-10-16T20:12:01.576Z,100820.06
2022-10-16T20:15:06.986Z,100821.91
2022-10-16T20:18:10.279Z,100822.81
2022-10-16T20:21:15.324Z,100828.19
2022-10-16T20:24:19.094Z,100836.00
2022-10-16T20:27:22.281Z,100832.44
2022-10-16T20:30:26.924Z,100831.91
2022-10-16T20:33:30.143Z,100837.50
2022-10-16T20:36:34.069Z,100835.09
2022-10-16T20:39:37.330Z,100842.38
2022-10-16T20:42:40.644Z,100839.97
2022-10-16T20:45:46.186Z,100840.56
2022-10-16T20:48:49.546Z,100854.28
2022-10-16T20:51:52.724Z,100845.78
2022-10-16T20:54:55.985Z,100851.53
2022-10-16T20:57:59.234Z,100848.41
2022-10-16T21:01:08.224Z,100845.72
2022-10-16T21:04:11.549Z,100843.56
2022-10-16T21:07:14.817Z,100850.22
2022-10-16T21:10:19.204Z,100846.75
2022-10-16T21:13:24.220Z,100850.16
2022-10-16T21:16:31.064Z,100852.53
2022-10-16T21:19:34.308Z,100854.88
2022-10-16T21:22:37.596Z,100853.38
2022-10-16T21:25:40.851Z,100859.53
2022-10-16T21:28:44.081Z,100857.53
2022-10-16T21:31:48.892Z,100868.31
2022-10-16T21:34:52.151Z,100859.75
2022-10-16T21:37:55.453Z,100870.03
2022-10-16T21:40:58.694Z,100875.72
2022-10-16T21:44:02.674Z,100867.19
2022-10-16T21:47:07.316Z,100876.16
2022-10-16T21:50:11.034Z,100883.31
2022-10-16T21:53:14.248Z,100878.56
2022-10-16T21:56:18.907Z,100869.66
2022-10-16T21:59:22.278Z,100878.63
2022-10-16T22:02:26.987Z,100887.72
2022-10-16T22:05:30.140Z,100885.69
2022-10-16T22:08:34.395Z,100887.19
2022-10-16T22:11:39.441Z,100893.28
2022-10-16T22:14:42.685Z,100892.25
2022-10-16T22:17:47.304Z,100887.97
2022-10-16T22:20:50.603Z,100889.44
2022-10-16T22:23:53.795Z,100896.53
2022-10-16T22:26:57.088Z,100904.09
2022-10-16T22:30:00.282Z,100898.00
2022-10-16T22:33:05.626Z,100911.31
2022-10-16T22:36:12.516Z,100914.91
2022-10-16T22:39:15.700Z,100917.28
2022-10-16T22:42:19.027Z,100926.81
2022-10-16T22:45:22.199Z,100919.16
2022-10-16T22:48:26.856Z,100925.84
2022-10-16T22:51:30.226Z,100925.69
2022-10-16T22:54:33.460Z,100923.59
2022-10-16T22:57:36.703Z,100926.94
2022-10-16T23:00:42.581Z,100932.47
2022-10-16T23:03:47.390Z,100924.16
2022-10-16T23:06:50.593Z,100934.41
2022-10-16T23:09:54.802Z,100930.50
2022-10-16T23:12:58.076Z,100929.00
2022-10-16T23:16:01.317Z,100931.63
2022-10-16T23:19:06.042Z,100927.41
2022-10-16T23:22:09.258Z,100941.91
2022-10-16T23:25:12.507Z,100943.03
2022-10-16T23:31:24.524Z,100953.22
2022-10-16T23:34:29.136Z,100957.59
2022-10-16T23:37:32.372Z,100953.44
2022-10-16T23:40:35.692Z,100959.56
2022-10-16T23:43:39.259Z,100968.31
2022-10-16T23:46:42.504Z,100967.13
2022-10-16T23:49:47.158Z,100962.22
2022-10-16T23:52:50.442Z,100961.59
2022-10-16T23:55:53.714Z,100961.13
2022-10-16T23:58:56.900Z,100962.59
